createdAt,value
2017-08-29T00:01:38.635Z,66.60
2017-08-29T00:04:04.898Z,66.60
2017-08-29T00:06:31.191Z,66.60
2017-08-29T00:08:57.470Z,66.50
2017-08-29T00:11:23.740Z,66.70
2017-08-29T00:13:50.005Z,66.60
2017-08-29T00:16:16.282Z,66.50
2017-08-29T00:18:42.530Z,66.50
2017-08-29T00:21:09.515Z,66.20
2017-08-29T00:23:35.806Z,66.20
2017-08-29T00:26:02.063Z,66.30
2017-08-29T00:28:28.342Z,66.20
2017-08-29T00:30:54.626Z,66.00
2017-08-29T00:33:20.875Z,66.20
2017-08-29T00:35:47.196Z,66.30
2017-08-29T00:38:13.523Z,66.40
2017-08-29T00:40:39.875Z,66.10
2017-08-29T00:43:06.311Z,66.10
2017-08-29T00:45:32.691Z,66.10
2017-08-29T00:47:59.882Z,65.90
2017-08-29T00:50:26.132Z,65.90
2017-08-29T00:52:52.439Z,66.70
2017-08-29T00:55:18.698Z,66.00
2017-08-29T00:57:44.983Z,65.90
2017-08-29T01:00:11.261Z,65.90
2017-08-29T01:02:37.518Z,65.90
2017-08-29T01:05:03.767Z,66.20
2017-08-29T01:07:30.051Z,65.90
2017-08-29T01:09:56.347Z,65.90
2017-08-29T01:12:22.591Z,65.70
2017-08-29T01:14:48.900Z,65.90
2017-08-29T01:17:15.183Z,65.80
2017-08-29T01:19:41.431Z,66.00
2017-08-29T01:22:07.708Z,65.60
2017-08-29T01:24:33.991Z,65.50
2017-08-29T01:27:00.235Z,65.30
2017-08-29T01:29:27.357Z,65.70
2017-08-29T01:31:53.598Z,65.70
2017-08-29T01:34:19.858Z,65.90
2017-08-29T01:36:46.138Z,65.50
2017-08-29T01:39:12.423Z,65.50
2017-08-29T01:41:38.774Z,66.00
2017-08-29T01:44:05.161Z,66.10
2017-08-29T01:46:31.386Z,65.90
2017-08-29T01:48:57.761Z,66.10
2017-08-29T01:51:24.086Z,66.10
2017-08-29T01:53:50.342Z,65.80
2017-08-29T01:56:16.587Z,65.80
2017-08-29T01:58:42.879Z,65.90
2017-08-29T02:01:09.159Z,65.80
2017-08-29T02:03:35.410Z,65.80
2017-08-29T02:06:01.736Z,66.10
2017-08-29T02:08:27.967Z,66.70
2017-08-29T02:10:54.219Z,65.90
2017-08-29T02:13:20.499Z,65.70
2017-08-29T02:15:46.752Z,65.60
2017-08-29T02:18:12.978Z,65.40
2017-08-29T02:20:39.255Z,65.30
2017-08-29T02:23:05.495Z,65.30
2017-08-29T02:25:31.727Z,65.40
2017-08-29T02:27:58.018Z,65.30
2017-08-29T02:30:24.242Z,65.00
2017-08-29T02:32:50.470Z,65.20
2017-08-29T02:35:16.726Z,65.40
2017-08-29T02:37:42.948Z,65.30
2017-08-29T02:40:09.186Z,65.20
2017-08-29T02:42:35.980Z,65.10
2017-08-29T02:45:04.180Z,65.20
2017-08-29T02:47:30.424Z,65.20
2017-08-29T02:49:56.694Z,65.30
2017-08-29T02:52:22.954Z,65.40
2017-08-29T02:54:49.198Z,65.20
2017-08-29T02:57:15.464Z,65.30
2017-08-29T02:59:41.709Z,65.30
2017-08-29T03:02:07.978Z,65.40
2017-08-29T03:04:34.248Z,65.30
2017-08-29T03:07:00.480Z,65.40
2017-08-29T03:09:26.743Z,65.30
2017-08-29T03:11:53.024Z,65.30
2017-08-29T03:14:21.355Z,65.20
2017-08-29T03:16:47.655Z,65.20
2017-08-29T03:19:13.910Z,65.10
2017-08-29T03:21:40.180Z,65.20
2017-08-29T03:24:06.405Z,65.00
2017-08-29T03:26:32.680Z,65.10
2017-08-29T03:28:58.913Z,65.10
2017-08-29T03:31:25.146Z,65.20
2017-08-29T03:33:51.426Z,65.40
2017-08-29T03:36:17.666Z,65.30
2017-08-29T03:38:43.894Z,65.20
2017-08-29T03:41:10.183Z,65.40
2017-08-29T03:43:36.512Z,65.10
2017-08-29T03:46:04.594Z,65.10
2017-08-29T03:48:30.866Z,65.10
2017-08-29T03:50:57.112Z,65.10
2017-08-29T03:53:23.356Z,65.10
2017-08-29T03:55:49.611Z,65.20
2017-08-29T03:58:15.889Z,65.10
2017-08-29T04:00:42.131Z,65.30
2017-08-29T04:03:08.497Z,65.20
2017-08-29T04:05:34.728Z,65.40
2017-08-29T04:08:00.975Z,65.40
2017-08-29T04:10:27.254Z,65.30
2017-08-29T04:12:53.506Z,65.30
2017-08-29T04:15:19.754Z,65.60
2017-08-29T04:17:45.995Z,65.40
2017-08-29T04:20:12.234Z,65.50
2017-08-29T04:22:38.461Z,65.40
2017-08-29T04:25:04.842Z,65.90
2017-08-29T04:27:31.625Z,66.10
2017-08-29T04:29:57.853Z,66.10
2017-08-29T04:32:24.098Z,66.20
2017-08-29T04:34:50.370Z,66.20
2017-08-29T04:37:16.610Z,66.30
2017-08-29T04:39:43.013Z,66.30
2017-08-29T04:42:09.302Z,66.20
2017-08-29T04:44:35.631Z,66.20
2017-08-29T04:47:02.212Z,66.30
2017-08-29T04:49:28.458Z,66.30
2017-08-29T04:51:54.987Z,66.30
2017-08-29T04:54:21.650Z,66.60
2017-08-29T04:56:48.032Z,67.00
2017-08-29T04:59:14.289Z,66.80
2017-08-29T05:01:40.533Z,66.50
2017-08-29T05:04:06.790Z,66.40
2017-08-29T05:06:33.123Z,66.60
2017-08-29T05:08:59.391Z,66.70
2017-08-29T05:11:25.638Z,66.50
2017-08-29T05:13:51.866Z,66.30
2017-08-29T05:16:18.190Z,66.20
2017-08-29T05:18:44.430Z,65.90
2017-08-29T05:21:10.662Z,65.80
2017-08-29T05:23:36.932Z,65.70
2017-08-29T05:26:03.201Z,65.80
2017-08-29T05:28:29.441Z,66.00
2017-08-29T05:30:55.702Z,66.30
2017-08-29T05:33:21.932Z,66.00
2017-08-29T05:35:48.178Z,65.90
2017-08-29T05:38:14.451Z,65.70
2017-08-29T05:40:40.713Z,65.80
2017-08-29T05:43:06.959Z,65.90
2017-08-29T05:45:33.391Z,65.60
2017-08-29T05:48:00.023Z,65.60
2017-08-29T05:50:26.260Z,65.30
2017-08-29T05:52:52.566Z,65.40
2017-08-29T05:55:19.650Z,65.20
2017-08-29T05:57:45.878Z,65.10
2017-08-29T06:00:12.166Z,65.10
2017-08-29T06:02:38.394Z,65.40
2017-08-29T06:05:04.644Z,64.90
2017-08-29T06:07:30.906Z,65.10
2017-08-29T06:09:57.138Z,65.00
2017-08-29T06:12:23.398Z,65.10
2017-08-29T06:14:49.675Z,65.00
2017-08-29T06:17:15.910Z,65.70
2017-08-29T06:19:42.146Z,65.20
2017-08-29T06:22:08.447Z,65.20
2017-08-29T06:24:34.678Z,65.10
2017-08-29T06:27:00.929Z,65.00
2017-08-29T06:29:27.222Z,65.00
2017-08-29T06:31:53.466Z,65.00
2017-08-29T06:34:19.707Z,65.10
2017-08-29T06:36:45.967Z,65.10
2017-08-29T06:39:12.191Z,65.30
2017-08-29T06:41:38.635Z,65.00
2017-08-29T06:44:05.051Z,65.20
2017-08-29T06:46:31.406Z,65.30
2017-08-29T06:48:57.943Z,64.80
2017-08-29T06:51:24.220Z,65.10
2017-08-29T06:53:50.554Z,65.00
2017-08-29T06:56:16.784Z,65.10
2017-08-29T06:58:43.034Z,65.20
2017-08-29T07:01:09.283Z,65.30
2017-08-29T07:03:35.514Z,65.40
2017-08-29T07:06:01.769Z,66.10
2017-08-29T07:08:28.002Z,66.20
2017-08-29T07:10:54.238Z,65.80
2017-08-29T07:13:20.522Z,65.60
2017-08-29T07:15:47.517Z,65.70
2017-08-29T07:18:13.762Z,65.60
2017-08-29T07:20:40.155Z,65.60
2017-08-29T07:23:06.477Z,65.30
2017-08-29T07:25:32.778Z,65.40
2017-08-29T07:27:59.052Z,65.20
2017-08-29T07:30:25.296Z,65.70
2017-08-29T07:32:51.527Z,65.80
2017-08-29T07:35:17.762Z,65.50
2017-08-29T07:37:43.983Z,65.40
2017-08-29T07:40:10.254Z,65.00
2017-08-29T07:42:36.652Z,65.00
2017-08-29T07:45:03.048Z,65.40
2017-08-29T07:47:29.614Z,65.40
2017-08-29T07:49:56.305Z,65.90
2017-08-29T07:52:22.562Z,65.30
2017-08-29T07:54:49.066Z,65.30
2017-08-29T07:57:15.339Z,65.40
2017-08-29T07:59:41.592Z,65.70
2017-08-29T08:02:07.822Z,66.30
2017-08-29T08:04:34.110Z,66.90
2017-08-29T08:07:00.359Z,66.10
2017-08-29T08:09:26.614Z,65.80
2017-08-29T08:11:52.870Z,66.10
2017-08-29T08:14:19.110Z,65.70
2017-08-29T08:16:45.370Z,66.00
2017-08-29T08:19:11.663Z,66.10
2017-08-29T08:21:37.896Z,66.20
2017-08-29T08:24:04.148Z,66.80
2017-08-29T08:26:30.432Z,66.50
2017-08-29T08:28:56.674Z,66.50
2017-08-29T08:31:22.901Z,66.70
2017-08-29T08:33:49.170Z,66.90
2017-08-29T08:36:15.426Z,66.90
2017-08-29T08:38:41.676Z,66.70
2017-08-29T08:41:07.943Z,66.90
2017-08-29T08:43:34.178Z,67.50
2017-08-29T08:46:00.406Z,67.50
2017-08-29T08:48:26.745Z,67.40
2017-08-29T08:50:53.086Z,67.40
2017-08-29T08:53:19.314Z,67.50
2017-08-29T08:55:45.624Z,68.30
2017-08-29T08:58:11.867Z,67.70
2017-08-29T09:00:38.098Z,67.30
2017-08-29T09:03:04.362Z,67.20
2017-08-29T09:05:30.641Z,67.50
2017-08-29T09:07:56.883Z,67.40
2017-08-29T09:10:23.139Z,67.50
2017-08-29T09:12:49.391Z,67.30
2017-08-29T09:15:15.642Z,68.20
2017-08-29T09:17:41.907Z,68.10
2017-08-29T09:20:08.194Z,68.20
2017-08-29T09:22:34.470Z,68.30
2017-08-29T09:25:00.722Z,68.30
2017-08-29T09:27:26.950Z,68.70
2017-08-29T09:29:53.197Z,68.30
2017-08-29T09:32:19.483Z,67.50
2017-08-29T09:34:45.734Z,68.30
2017-08-29T09:37:11.970Z,68.40
2017-08-29T09:39:38.242Z,68.70
2017-08-29T09:42:04.515Z,68.80
2017-08-29T09:44:30.758Z,69.30
2017-08-29T09:46:57.002Z,68.80
2017-08-29T09:49:23.342Z,69.50
2017-08-29T09:51:50.038Z,69.40
2017-08-29T09:54:16.280Z,69.40
2017-08-29T09:56:42.514Z,69.20
2017-08-29T09:59:08.746Z,69.20
2017-08-29T10:01:34.983Z,70.00
2017-08-29T10:04:01.218Z,70.50
2017-08-29T10:06:27.468Z,69.70
2017-08-29T10:08:53.768Z,69.80
2017-08-29T10:11:20.043Z,70.10
2017-08-29T10:13:46.285Z,69.90
2017-08-29T10:16:12.560Z,69.90
2017-08-29T10:18:38.794Z,69.80
2017-08-29T10:21:05.029Z,69.40
2017-08-29T10:23:31.298Z,69.80
2017-08-29T10:25:57.571Z,70.00
2017-08-29T10:28:23.789Z,69.40
2017-08-29T10:30:50.046Z,69.50
2017-08-29T10:33:16.298Z,69.50
2017-08-29T10:35:42.546Z,69.70
2017-08-29T10:38:08.798Z,69.50
2017-08-29T10:40:35.029Z,69.50
2017-08-29T10:43:01.293Z,69.10
2017-08-29T10:45:27.555Z,69.20
2017-08-29T10:47:53.822Z,69.50
2017-08-29T10:50:20.152Z,70.20
2017-08-29T10:52:46.648Z,69.60
2017-08-29T10:55:13.251Z,70.10
2017-08-29T10:57:39.486Z,69.50
2017-08-29T11:00:05.782Z,69.80
2017-08-29T11:02:32.008Z,69.50
2017-08-29T11:04:58.264Z,69.90
2017-08-29T11:07:24.522Z,69.70
2017-08-29T11:09:50.780Z,69.70
2017-08-29T11:12:17.786Z,70.40
2017-08-29T11:14:44.042Z,70.20
2017-08-29T11:17:10.273Z,69.70
2017-08-29T11:19:36.505Z,70.50
2017-08-29T11:22:02.959Z,70.00
2017-08-29T11:24:29.229Z,69.80
2017-08-29T11:26:55.482Z,69.60
2017-08-29T11:29:22.634Z,69.80
2017-08-29T11:31:48.882Z,69.30
2017-08-29T11:34:15.129Z,69.10
2017-08-29T11:36:41.519Z,69.10
2017-08-29T11:39:07.785Z,69.50
2017-08-29T11:41:34.097Z,69.70
2017-08-29T11:44:00.369Z,69.90
2017-08-29T11:46:26.599Z,69.50
2017-08-29T11:48:52.861Z,70.10
2017-08-29T11:51:19.455Z,69.40
2017-08-29T11:53:45.961Z,69.80
2017-08-29T11:56:12.222Z,69.50
2017-08-29T11:58:38.575Z,69.20
2017-08-29T12:01:04.823Z,69.60
2017-08-29T12:03:31.077Z,69.20
2017-08-29T12:05:57.326Z,69.50
2017-08-29T12:08:23.587Z,68.90
2017-08-29T12:10:49.849Z,68.70
2017-08-29T12:13:16.098Z,68.90
2017-08-29T12:15:42.373Z,68.60
2017-08-29T12:18:08.624Z,68.90
2017-08-29T12:20:37.578Z,68.90
2017-08-29T12:23:03.877Z,69.00
2017-08-29T12:25:30.114Z,68.60
2017-08-29T12:27:56.375Z,67.90
2017-08-29T12:30:22.605Z,68.00
2017-08-29T12:32:48.851Z,67.40
2017-08-29T12:35:15.126Z,66.80
2017-08-29T12:37:41.363Z,66.40
2017-08-29T12:40:07.592Z,66.90
2017-08-29T12:42:33.822Z,67.30
2017-08-29T12:45:00.089Z,66.50
2017-08-29T12:47:26.326Z,66.20
2017-08-29T12:49:52.588Z,66.20
2017-08-29T12:52:18.944Z,66.00
2017-08-29T12:54:45.377Z,65.70
2017-08-29T12:57:11.626Z,66.10
2017-08-29T12:59:37.895Z,65.20
2017-08-29T13:02:04.143Z,65.20
2017-08-29T13:04:30.406Z,64.90
2017-08-29T13:06:56.669Z,65.20
2017-08-29T13:09:22.955Z,65.00
2017-08-29T13:11:49.250Z,65.70
2017-08-29T13:14:15.514Z,65.40
2017-08-29T13:16:41.785Z,65.30
2017-08-29T13:19:08.089Z,65.30
2017-08-29T13:21:34.430Z,65.30
2017-08-29T13:24:00.668Z,65.00
2017-08-29T13:26:26.915Z,64.40
2017-08-29T13:28:53.191Z,64.80
2017-08-29T13:31:19.450Z,64.50
2017-08-29T13:33:45.706Z,64.30
2017-08-29T13:36:11.943Z,64.50
2017-08-29T13:38:38.194Z,64.00
2017-08-29T13:41:04.444Z,64.00
2017-08-29T13:43:30.673Z,64.20
2017-08-29T13:45:56.962Z,63.90
2017-08-29T13:48:23.225Z,64.00
2017-08-29T13:50:49.453Z,64.20
2017-08-29T13:53:15.788Z,64.10
2017-08-29T13:55:42.254Z,64.00
2017-08-29T13:58:15.625Z,64.30
2017-08-29T14:00:41.894Z,64.10
2017-08-29T14:03:08.129Z,65.10
2017-08-29T14:05:34.358Z,64.80
2017-08-29T14:08:00.618Z,64.90
2017-08-29T14:10:26.874Z,64.70
2017-08-29T14:12:53.105Z,64.20
2017-08-29T14:15:19.358Z,63.70
2017-08-29T14:17:45.602Z,63.90
2017-08-29T14:20:11.934Z,63.70
2017-08-29T14:22:38.207Z,64.40
2017-08-29T14:25:04.434Z,63.50
2017-08-29T14:27:30.680Z,63.90
2017-08-29T14:29:56.943Z,64.70
2017-08-29T14:32:23.307Z,64.70
2017-08-29T14:34:49.587Z,64.90
2017-08-29T14:37:15.854Z,65.80
2017-08-29T14:39:42.144Z,65.90
2017-08-29T14:42:08.404Z,65.70
2017-08-29T14:44:34.694Z,64.40
2017-08-29T14:47:13.158Z,64.40
2017-08-29T14:49:39.416Z,63.40
2017-08-29T14:52:05.660Z,63.70
2017-08-29T14:54:32.058Z,63.70
2017-08-29T14:56:58.517Z,63.80
2017-08-29T15:01:55.390Z,63.90
2017-08-29T15:04:21.622Z,64.70
2017-08-29T15:06:47.848Z,65.10
2017-08-29T15:09:14.065Z,65.50
2017-08-29T15:11:40.325Z,65.50
2017-08-29T15:14:06.548Z,65.00
2017-08-29T15:16:32.915Z,64.30
2017-08-29T15:18:59.173Z,65.00
2017-08-29T15:21:25.550Z,66.50
2017-08-29T15:23:51.779Z,65.70
2017-08-29T15:26:18.025Z,65.90
2017-08-29T15:28:44.233Z,65.80
2017-08-29T15:31:10.466Z,66.80
2017-08-29T15:33:36.810Z,67.30
2017-08-29T15:36:03.823Z,66.80
2017-08-29T15:38:30.703Z,66.80
2017-08-29T15:40:56.942Z,66.50
2017-08-29T15:43:23.181Z,66.40
2017-08-29T15:45:49.434Z,66.90
2017-08-29T15:48:15.701Z,67.20
2017-08-29T15:50:41.922Z,67.10
2017-08-29T15:53:08.158Z,67.30
2017-08-29T15:55:34.498Z,67.50
2017-08-29T15:58:00.836Z,67.40
2017-08-29T16:00:27.060Z,67.40
2017-08-29T16:02:53.293Z,67.60
2017-08-29T16:05:19.578Z,67.80
2017-08-29T16:07:45.814Z,67.80
2017-08-29T16:10:12.065Z,68.10
2017-08-29T16:12:38.301Z,67.80
2017-08-29T16:15:05.000Z,67.90
2017-08-29T16:17:31.243Z,68.20
2017-08-29T16:19:57.486Z,68.30
2017-08-29T16:22:23.718Z,68.40
2017-08-29T16:24:49.974Z,68.50
2017-08-29T16:27:16.203Z,69.00
2017-08-29T16:29:42.433Z,68.80
2017-08-29T16:32:08.685Z,68.70
2017-08-29T16:34:34.897Z,68.90
2017-08-29T16:37:01.138Z,69.00
2017-08-29T16:39:27.386Z,69.20
2017-08-29T16:41:53.635Z,69.10
2017-08-29T16:44:19.869Z,69.20
2017-08-29T16:46:46.118Z,69.40
2017-08-29T16:49:12.864Z,69.20
2017-08-29T16:51:39.097Z,69.50
2017-08-29T16:54:05.346Z,69.60
2017-08-29T16:56:31.782Z,69.80
2017-08-29T16:58:58.229Z,70.30
2017-08-29T17:01:24.540Z,70.60
2017-08-29T17:03:50.762Z,70.80
2017-08-29T17:06:16.982Z,71.00
2017-08-29T17:08:43.250Z,71.10
2017-08-29T17:11:09.475Z,71.10
2017-08-29T17:13:35.681Z,71.20
2017-08-29T17:16:01.934Z,71.40
2017-08-29T17:18:29.033Z,71.50
2017-08-29T17:20:55.273Z,71.50
2017-08-29T17:23:21.509Z,71.40
2017-08-29T17:25:47.749Z,71.70
2017-08-29T17:28:13.989Z,71.60
2017-08-29T17:30:40.236Z,71.50
2017-08-29T17:33:06.449Z,71.70
2017-08-29T17:35:32.766Z,71.80
2017-08-29T17:37:59.038Z,71.60
2017-08-29T17:40:25.267Z,71.70
2017-08-29T17:42:51.497Z,72.00
2017-08-29T17:45:17.750Z,72.20
2017-08-29T17:47:43.994Z,72.10
2017-08-29T17:50:11.270Z,72.10
2017-08-29T17:52:44.377Z,72.10
2017-08-29T17:55:10.638Z,72.30
2017-08-29T17:57:37.046Z,72.40
2017-08-29T18:00:03.389Z,72.40
2017-08-29T18:02:29.626Z,72.40
2017-08-29T18:04:55.889Z,72.50
2017-08-29T18:07:22.169Z,72.80
2017-08-29T18:09:48.388Z,73.30
2017-08-29T18:12:14.620Z,73.60
2017-08-29T18:14:40.894Z,73.80
2017-08-29T18:17:07.125Z,73.90
2017-08-29T18:19:33.334Z,74.10
2017-08-29T18:21:59.611Z,74.20
2017-08-29T18:24:25.845Z,74.40
2017-08-29T18:26:52.078Z,74.60
2017-08-29T18:29:18.337Z,74.60
2017-08-29T18:31:44.579Z,74.70
2017-08-29T18:34:11.590Z,74.90
2017-08-29T18:36:37.894Z,74.90
2017-08-29T18:39:04.965Z,74.90
2017-08-29T18:41:31.194Z,75.10
2017-08-29T18:43:57.462Z,75.20
2017-08-29T18:46:23.845Z,75.40
2017-08-29T18:48:50.089Z,75.40
2017-08-29T18:51:16.386Z,75.40
2017-08-29T18:53:42.635Z,75.50
2017-08-29T18:56:09.338Z,75.50
2017-08-29T18:58:36.501Z,76.10
2017-08-29T19:01:03.222Z,76.00
2017-08-29T19:03:29.501Z,75.70
2017-08-29T19:05:55.740Z,76.00
2017-08-29T19:08:21.963Z,76.00
2017-08-29T19:10:48.197Z,76.20
2017-08-29T19:13:14.485Z,76.40
2017-08-29T19:15:40.727Z,76.40
2017-08-29T19:18:06.955Z,76.40
2017-08-29T19:20:33.438Z,75.90
2017-08-29T19:22:59.659Z,76.60
2017-08-29T19:25:25.910Z,76.80
2017-08-29T19:27:52.251Z,76.70
2017-08-29T19:30:18.755Z,76.70
2017-08-29T19:32:45.010Z,76.70
2017-08-29T19:35:11.288Z,76.80
2017-08-29T19:37:37.530Z,76.90
2017-08-29T19:40:03.789Z,76.80
2017-08-29T19:42:30.044Z,77.00
2017-08-29T19:44:56.270Z,76.90
2017-08-29T19:47:22.491Z,77.00
2017-08-29T19:49:48.834Z,77.10
2017-08-29T19:52:15.113Z,77.20
2017-08-29T19:54:41.377Z,77.20
2017-08-29T19:57:07.630Z,77.40
2017-08-29T19:59:33.955Z,77.50
2017-08-29T20:02:00.538Z,77.60
2017-08-29T20:04:26.785Z,77.50
2017-08-29T20:06:53.005Z,77.60
2017-08-29T20:09:19.233Z,77.80
2017-08-29T20:11:45.471Z,77.70
2017-08-29T20:14:11.714Z,77.90
2017-08-29T20:16:44.879Z,78.10
2017-08-29T20:19:11.137Z,78.00
2017-08-29T20:21:37.361Z,78.00
2017-08-29T20:24:03.653Z,78.10
2017-08-29T20:26:29.910Z,78.20
2017-08-29T20:28:57.162Z,78.10
2017-08-29T20:31:23.406Z,78.30
2017-08-29T20:33:49.666Z,78.70
2017-08-29T20:36:15.878Z,78.00
2017-08-29T20:38:42.121Z,78.40
2017-08-29T20:41:08.574Z,78.40
2017-08-29T20:43:34.890Z,78.60
2017-08-29T20:46:01.147Z,78.40
2017-08-29T20:48:27.389Z,78.30
2017-08-29T20:50:53.613Z,78.40
2017-08-29T20:53:19.830Z,78.50
2017-08-29T20:55:46.087Z,78.70
2017-08-29T20:58:12.330Z,78.60
2017-08-29T21:00:38.688Z,78.50
2017-08-29T21:03:05.226Z,78.60
2017-08-29T21:05:31.457Z,78.60
2017-08-29T21:07:57.685Z,78.60
2017-08-29T21:10:23.917Z,78.50
2017-08-29T21:12:50.159Z,78.50
2017-08-29T21:15:17.578Z,78.50
2017-08-29T21:17:43.821Z,78.60
2017-08-29T21:20:10.065Z,78.70
2017-08-29T21:22:36.438Z,78.80
2017-08-29T21:25:02.763Z,78.60
2017-08-29T21:27:28.994Z,78.70
2017-08-29T21:29:55.215Z,78.90
2017-08-29T21:32:21.457Z,78.90
2017-08-29T21:34:47.691Z,79.00
2017-08-29T21:37:13.917Z,79.10
2017-08-29T21:39:40.153Z,79.20
2017-08-29T21:42:06.386Z,79.30
2017-08-29T21:44:32.682Z,79.20
2017-08-29T21:46:58.921Z,79.10
2017-08-29T21:49:25.215Z,79.30
2017-08-29T21:51:51.510Z,79.20
2017-08-29T21:54:17.758Z,79.20
2017-08-29T21:56:43.978Z,79.20
2017-08-29T21:59:10.195Z,79.30
2017-08-29T22:01:36.517Z,79.30
2017-08-29T22:04:04.130Z,79.40
2017-08-29T22:06:30.353Z,79.50
2017-08-29T22:08:56.691Z,79.60
2017-08-29T22:11:22.965Z,79.60
2017-08-29T22:13:49.197Z,79.70
2017-08-29T22:16:15.453Z,79.90
2017-08-29T22:18:41.668Z,79.90
2017-08-29T22:21:07.935Z,79.90
2017-08-29T22:23:34.173Z,79.70
2017-08-29T22:26:00.389Z,79.70
2017-08-29T22:28:26.613Z,79.60
2017-08-29T22:30:53.008Z,79.60
2017-08-29T22:33:20.217Z,79.60
2017-08-29T22:35:46.440Z,79.60
2017-08-29T22:38:12.706Z,79.50
2017-08-29T22:40:38.921Z,79.40
2017-08-29T22:43:05.134Z,79.40
2017-08-29T22:45:31.397Z,79.40
2017-08-29T22:47:57.624Z,79.40
2017-08-29T22:50:23.856Z,79.40
2017-08-29T22:52:50.086Z,79.50
2017-08-29T22:55:16.307Z,79.50
2017-08-29T22:57:42.533Z,79.60
2017-08-29T23:00:08.762Z,79.60
2017-08-29T23:02:35.282Z,79.80
2017-08-29T23:05:01.766Z,79.70
2017-08-29T23:07:28.013Z,79.70
2017-08-29T23:09:54.257Z,79.70
2017-08-29T23:12:20.474Z,79.70
2017-08-29T23:14:46.746Z,79.70
2017-08-29T23:17:12.969Z,79.70
2017-08-29T23:19:39.196Z,79.70
2017-08-29T23:22:05.462Z,79.80
2017-08-29T23:24:31.694Z,79.60
2017-08-29T23:26:57.949Z,79.70
2017-08-29T23:29:24.206Z,79.70
2017-08-29T23:31:50.414Z,79.60
2017-08-29T23:34:16.633Z,79.50
2017-08-29T23:36:42.889Z,79.50
2017-08-29T23:39:09.121Z,79.50
2017-08-29T23:41:35.350Z,79.50
2017-08-29T23:44:01.632Z,79.50
2017-08-29T23:46:27.846Z,79.30
2017-08-29T23:48:54.063Z,79.20
2017-08-29T23:51:20.317Z,79.40
2017-08-29T23:53:46.585Z,79.60
2017-08-29T23:56:13.823Z,79.70
2017-08-29T23:58:40.149Z,79.70
